Milwaukee, Wisconsin
Traffic Map
Current Weather Conditions
Milwaukee, Wisconsin
Clear
Clear
73°
Feels Like: 73°
Wind Chill: 73° Ceiling: Unl
Heat Index: 73° Visibility: 10mi
Dew Point: 59° Wind: 9mph
Humidity: 61% Direction: 310° (NW)
Pressure: 29.93in Gusts: 0mph
Raw Report DataKMKE 260752Z 31008KT 10SM CLR 23/15 A2993 RMK AO2 SLP129 T02280150
Traffic Incident Summary
Active as of:
Severity:
Category:
InformationThere was an issue retrieving the traffic information for this location. Please try a different location or try again shortly.
Advertisements